Time;durP1;ratioP1;P1;durP2;ratioP2;P2;SDS_P1;SDS_P2;PMS_P1;PMS_P2;Temp;Humidity;BMP_temperature;BMP_pressure;BME280_temperature;BME280_humidity;BME280_pressure;Samples;Min_cycle;Max_cycle;Signal;HPM_P1;HPM_P2
2022/02/12 00:00:29;;;;;;;11.83;5.33;;;1.80;99.90;;;;;;4973766;28;20029;-82
2022/02/12 00:02:55;;;;;;;8.60;4.83;;;1.80;99.90;;;;;;4974804;28;20023;-80
2022/02/12 00:05:24;;;;;;;9.47;4.87;;;1.80;99.90;;;;;;4973698;28;20037;-80
2022/02/12 00:07:51;;;;;;;15.87;5.47;;;1.80;99.90;;;;;;4973200;28;20035;-82
2022/02/12 00:10:16;;;;;;;14.67;5.73;;;1.80;99.90;;;;;;4974305;28;20027;-82
2022/02/12 00:12:42;;;;;;;9.77;5.50;;;1.80;99.90;;;;;;4972966;28;20505;-89
2022/02/12 00:15:09;;;;;;;10.70;5.00;;;1.80;99.90;;;;;;4974798;28;20050;-87
2022/02/12 00:17:34;;;;;;;11.93;5.77;;;1.70;99.90;;;;;;4974628;28;20480;-87
2022/02/12 00:20:00;;;;;;;9.33;5.10;;;1.70;99.90;;;;;;4974355;28;20054;-86
2022/02/12 00:22:26;;;;;;;10.73;5.60;;;1.70;99.90;;;;;;4974572;28;20051;-86
2022/02/12 00:24:52;;;;;;;12.40;5.50;;;1.60;99.90;;;;;;4974510;28;20087;-87
2022/02/12 00:27:18;;;;;;;15.77;6.13;;;1.60;99.90;;;;;;4973678;28;20023;-85
2022/02/12 00:29:43;;;;;;;15.27;5.40;;;1.60;99.90;;;;;;4970411;28;20054;-84
2022/02/12 00:32:09;;;;;;;14.27;5.77;;;1.50;99.90;;;;;;4971564;28;20034;-85
2022/02/12 00:34:35;;;;;;;10.33;5.40;;;1.50;99.90;;;;;;4974672;28;20031;-84
2022/02/12 00:37:01;;;;;;;15.13;5.67;;;1.60;99.90;;;;;;4974001;28;20049;-83
2022/02/12 00:39:26;;;;;;;12.43;5.40;;;1.60;99.90;;;;;;4973506;28;20027;-84
2022/02/12 00:41:52;;;;;;;11.67;5.67;;;1.60;99.90;;;;;;4974086;28;20027;-84
2022/02/12 00:44:18;;;;;;;11.07;5.70;;;1.70;99.90;;;;;;4974027;28;20130;-84
2022/02/12 00:46:44;;;;;;;13.27;6.20;;;1.60;99.90;;;;;;4973272;28;20539;-84
2022/02/12 00:49:09;;;;;;;20.03;7.13;;;1.70;99.90;;;;;;4973813;28;20181;-84
2022/02/12 00:51:35;;;;;;;18.00;7.80;;;1.80;99.90;;;;;;4974343;28;20053;-83
2022/02/12 00:54:05;;;;;;;21.30;7.60;;;1.80;99.90;;;;;;4973935;28;20456;-83
2022/02/12 00:56:31;;;;;;;13.53;6.47;;;1.80;99.90;;;;;;4973383;28;20130;-83
2022/02/12 00:58:56;;;;;;;14.87;6.27;;;1.80;99.90;;;;;;4973906;28;20027;-83
2022/02/12 01:01:23;;;;;;;15.23;6.37;;;1.80;99.90;;;;;;4973690;28;20093;-88
2022/02/12 01:03:49;;;;;;;15.07;6.63;;;1.80;99.90;;;;;;4973316;28;20122;-87
2022/02/12 01:06:15;;;;;;;16.07;6.03;;;1.80;99.90;;;;;;4974988;28;20069;-87
2022/02/12 01:08:41;;;;;;;11.63;5.03;;;1.80;99.90;;;;;;4973374;28;20026;-88
2022/02/12 01:11:06;;;;;;;12.40;5.77;;;1.80;99.90;;;;;;4973876;28;20114;-87
2022/02/12 01:13:32;;;;;;;11.30;5.40;;;1.70;99.90;;;;;;4974375;28;20030;-88
2022/02/12 01:15:58;;;;;;;11.20;5.43;;;1.80;99.90;;;;;;4973525;28;20031;-87
2022/02/12 01:18:23;;;;;;;11.43;5.13;;;1.80;99.90;;;;;;4973299;28;20082;-84
2022/02/12 01:20:49;;;;;;;16.43;5.63;;;1.80;99.90;;;;;;4973164;28;20399;-84
2022/02/12 01:23:15;;;;;;;11.30;4.83;;;1.80;99.90;;;;;;4974541;28;20033;-84
2022/02/12 01:25:40;;;;;;;10.57;4.77;;;1.80;99.90;;;;;;4976196;28;20118;-85
2022/02/12 01:28:06;;;;;;;12.80;5.27;;;1.70;99.90;;;;;;4977105;28;20034;-85
2022/02/12 01:30:32;;;;;;;11.50;4.23;;;1.70;99.90;;;;;;4976639;28;20122;-84
2022/02/12 01:32:58;;;;;;;11.63;4.93;;;1.70;99.90;;;;;;4977022;28;20027;-84
2022/02/12 01:35:24;;;;;;;10.60;4.87;;;1.70;99.90;;;;;;4977069;28;20039;-84
2022/02/12 01:37:51;;;;;;;14.90;5.50;;;1.70;99.90;;;;;;4976236;28;20456;-84
2022/02/12 01:40:21;;;;;;;9.03;4.67;;;1.50;99.90;;;;;;4977711;28;20030;-84
2022/02/12 01:42:47;;;;;;;10.50;4.50;;;1.50;99.90;;;;;;4976510;28;20111;-84
2022/02/12 01:45:14;;;;;;;12.73;4.90;;;1.50;99.90;;;;;;4977015;28;20031;-84
2022/02/12 01:47:40;;;;;;;13.80;5.37;;;1.50;99.90;;;;;;4977144;28;20548;-84
2022/02/12 01:50:06;;;;;;;10.47;5.03;;;1.40;99.90;;;;;;4976670;28;20066;-84
2022/02/12 01:52:32;;;;;;;11.20;5.13;;;1.40;99.90;;;;;;4975968;28;20037;-84
2022/02/12 01:54:59;;;;;;;9.37;4.47;;;1.40;99.90;;;;;;4977534;28;20027;-84
2022/02/12 01:57:25;;;;;;;13.10;5.03;;;1.50;99.90;;;;;;4976483;28;20368;-82
2022/02/12 01:59:50;;;;;;;12.17;4.93;;;1.50;99.90;;;;;;4977103;28;20030;-82
2022/02/12 02:02:16;;;;;;;12.40;4.90;;;1.50;99.90;;;;;;4976494;28;20057;-83
2022/02/12 02:04:42;;;;;;;12.43;4.53;;;1.50;99.90;;;;;;4975935;28;20035;-83
2022/02/12 02:07:10;;;;;;;11.80;5.20;;;1.50;99.90;;;;;;4976190;28;20460;-83
2022/02/12 02:09:36;;;;;;;12.13;4.83;;;1.50;99.90;;;;;;4976814;28;20027;-83
2022/02/12 02:12:03;;;;;;;9.93;4.53;;;1.40;99.90;;;;;;4976079;28;20030;-83
2022/02/12 02:14:34;;;;;;;12.77;5.20;;;1.30;99.90;;;;;;4975321;28;20037;-84
2022/02/12 02:17:00;;;;;;;9.47;4.80;;;1.30;99.90;;;;;;4976999;28;20470;-85
2022/02/12 02:19:26;;;;;;;9.03;4.40;;;1.20;99.90;;;;;;4975655;28;20065;-84
2022/02/12 02:21:55;;;;;;;11.23;5.20;;;1.10;99.90;;;;;;4975614;28;20094;-85
2022/02/12 02:24:21;;;;;;;10.50;4.43;;;1.10;99.90;;;;;;4977171;28;20030;-85
2022/02/12 02:26:47;;;;;;;9.90;4.87;;;1.20;99.90;;;;;;4975788;28;20081;-85
2022/02/12 02:29:13;;;;;;;11.53;5.00;;;1.20;99.90;;;;;;4977002;28;20038;-84
2022/02/12 02:31:38;;;;;;;13.20;5.20;;;1.20;99.90;;;;;;4975468;28;20027;-85
2022/02/12 02:34:12;;;;;;;12.33;4.97;;;1.10;99.90;;;;;;4976776;28;20099;-85
2022/02/12 02:36:38;;;;;;;11.03;5.33;;;1.20;99.90;;;;;;4974089;28;20031;-85
2022/02/12 02:39:05;;;;;;;10.30;5.37;;;1.10;99.90;;;;;;4975625;28;20051;-83
2022/02/12 02:41:32;;;;;;;11.97;5.33;;;1.10;99.90;;;;;;4975139;28;20101;-84
2022/02/12 02:43:58;;;;;;;11.27;5.07;;;1.00;99.90;;;;;;4975574;28;20034;-83
2022/02/12 02:46:23;;;;;;;10.90;4.93;;;1.10;99.90;;;;;;4975537;28;20034;-83
2022/02/12 02:48:49;;;;;;;9.80;4.93;;;1.10;99.90;;;;;;4975092;28;20055;-83
2022/02/12 02:56:43;;;;;;;11.30;5.23;;;1.00;99.90;;;;;;4975807;28;20399;-85
2022/02/12 02:59:09;;;;;;;12.43;5.77;;;1.00;99.90;;;;;;4975424;28;20031;-84
2022/02/12 03:01:38;;;;;;;12.07;5.30;;;1.00;99.90;;;;;;4974769;28;20464;-85
2022/02/12 03:04:04;;;;;;;10.57;4.77;;;1.00;99.90;;;;;;4976171;28;20109;-85
2022/02/12 03:06:30;;;;;;;10.57;5.27;;;1.00;99.90;;;;;;4975451;28;20082;-84
2022/02/12 03:08:57;;;;;;;11.33;4.70;;;1.00;99.90;;;;;;4975810;28;20035;-85
2022/02/12 03:11:23;;;;;;;13.80;5.60;;;1.00;99.90;;;;;;4975165;28;20387;-85
2022/02/12 03:13:51;;;;;;;8.97;4.67;;;0.90;99.90;;;;;;4975599;28;20031;-84
2022/02/12 03:16:17;;;;;;;14.43;5.50;;;0.90;99.90;;;;;;4976022;28;20038;-83
2022/02/12 03:18:46;;;;;;;12.77;6.07;;;0.90;99.90;;;;;;4974040;28;20551;-84
2022/02/12 03:21:12;;;;;;;12.70;5.33;;;0.80;99.90;;;;;;4974264;28;20077;-83
2022/02/12 03:23:38;;;;;;;13.13;5.73;;;0.90;99.90;;;;;;4974503;28;20026;-85
2022/02/12 03:26:04;;;;;;;10.63;5.20;;;0.90;99.90;;;;;;4973953;28;20034;-83
2022/02/12 03:28:30;;;;;;;13.37;5.70;;;0.90;99.90;;;;;;4974934;28;20022;-84
2022/02/12 03:30:56;;;;;;;9.20;4.57;;;0.80;99.90;;;;;;4973323;28;20033;-81
2022/02/12 03:33:21;;;;;;;10.07;4.87;;;0.80;99.90;;;;;;4974225;28;20054;-84
2022/02/12 03:35:53;;;;;;;16.50;5.80;;;0.70;99.90;;;;;;4973458;28;20464;-85
2022/02/12 03:38:27;;;;;;;11.05;5.50;;;0.80;99.90;;;;;;4975135;28;20023;-83
2022/02/12 03:40:57;;;;;;;10.93;5.07;;;0.80;99.90;;;;;;4973536;28;20062;-84
2022/02/12 03:43:24;;;;;;;12.60;5.23;;;0.70;99.90;;;;;;4973997;28;20062;-82
2022/02/12 03:45:50;;;;;;;9.63;4.60;;;0.70;99.90;;;;;;4973679;28;20039;-83
2022/02/12 03:48:16;;;;;;;15.07;5.30;;;0.70;99.90;;;;;;4973850;28;20041;-82
2022/02/12 03:50:42;;;;;;;9.53;5.13;;;0.70;99.90;;;;;;4974433;28;20110;-84
2022/02/12 03:53:09;;;;;;;9.90;4.27;;;0.60;99.90;;;;;;4973743;28;20109;-84
2022/02/12 03:55:40;;;;;;;11.83;5.53;;;0.70;99.90;;;;;;4973128;28;20038;-83
2022/02/12 03:58:08;;;;;;;8.63;4.03;;;0.60;99.90;;;;;;4974788;28;20198;-84
2022/02/12 04:00:34;;;;;;;14.43;4.57;;;0.60;99.90;;;;;;4973756;28;20037;-85
2022/02/12 04:03:00;;;;;;;10.00;4.70;;;0.60;99.90;;;;;;4973422;28;20369;-85
2022/02/12 04:05:26;;;;;;;12.73;5.13;;;0.50;99.90;;;;;;4973581;28;20031;-85
2022/02/12 04:07:52;;;;;;;13.03;5.40;;;0.50;99.90;;;;;;4974185;28;20464;-84
2022/02/12 04:10:19;;;;;;;12.50;5.13;;;0.40;99.90;;;;;;4973409;28;20022;-83
2022/02/12 04:12:45;;;;;;;9.53;4.87;;;0.40;99.90;;;;;;4972679;28;20060;-83
2022/02/12 04:15:12;;;;;;;10.10;4.93;;;0.40;99.90;;;;;;4973637;28;20027;-83
2022/02/12 04:17:42;;;;;;;11.40;5.50;;;0.50;99.90;;;;;;4960496;28;1130069;-77
2022/02/12 04:20:11;;;;;;;10.57;5.37;;;0.50;99.90;;;;;;4977203;28;20051;-84
2022/02/12 04:22:38;;;;;;;9.33;4.73;;;0.40;99.90;;;;;;4976982;28;20137;-85
2022/02/12 04:25:06;;;;;;;9.93;5.03;;;0.50;99.90;;;;;;4977733;28;20100;-84
2022/02/12 04:27:33;;;;;;;8.90;4.97;;;0.50;99.90;;;;;;4977427;28;20034;-83
2022/02/12 04:29:58;;;;;;;12.57;5.10;;;0.50;99.90;;;;;;4976719;28;20105;-83
2022/02/12 04:32:24;;;;;;;12.33;6.07;;;0.40;99.90;;;;;;4977258;28;20126;-83
2022/02/12 04:34:52;;;;;;;14.77;5.77;;;0.40;99.90;;;;;;4976318;28;20022;-85
2022/02/12 04:37:19;;;;;;;14.13;5.47;;;0.40;99.90;;;;;;4994355;28;20035;-85
2022/02/12 04:39:45;;;;;;;15.80;5.90;;;0.40;99.90;;;;;;4994095;28;20034;-84
2022/02/12 04:42:16;;;;;;;9.57;4.87;;;0.30;99.90;;;;;;4976811;28;20026;-84
2022/02/12 04:44:43;;;;;;;11.67;4.97;;;0.20;99.90;;;;;;4976677;28;20212;-85
2022/02/12 04:47:09;;;;;;;11.13;5.07;;;0.30;99.90;;;;;;4977040;28;20030;-84
2022/02/12 04:49:36;;;;;;;11.83;5.60;;;0.30;99.90;;;;;;4977075;28;20026;-84
2022/02/12 04:52:03;;;;;;;10.23;5.30;;;0.20;99.90;;;;;;4976708;28;20046;-84
2022/02/12 04:54:29;;;;;;;15.30;5.57;;;0.20;99.90;;;;;;4977141;28;20033;-84
2022/02/12 04:56:55;;;;;;;10.73;5.37;;;0.20;99.90;;;;;;4976603;28;20039;-85
2022/02/12 04:59:21;;;;;;;14.00;5.40;;;0.20;99.90;;;;;;4979223;28;20093;-84
2022/02/12 05:01:48;;;;;;;10.90;5.10;;;0.20;99.90;;;;;;4980225;28;20533;-83
2022/02/12 05:04:14;;;;;;;10.23;5.07;;;0.20;99.90;;;;;;4980793;28;20077;-83
2022/02/12 05:06:40;;;;;;;12.93;5.50;;;0.10;99.90;;;;;;4980203;28;20034;-83
2022/02/12 05:09:05;;;;;;;13.40;5.93;;;0.20;99.90;;;;;;4980888;28;20022;-83
2022/02/12 05:11:31;;;;;;;13.13;4.70;;;0.10;99.90;;;;;;4980610;28;20030;-82
2022/02/12 05:13:57;;;;;;;15.40;5.30;;;0.10;99.90;;;;;;4997153;28;20023;-82
2022/02/12 05:16:22;;;;;;;12.07;5.27;;;0.10;99.90;;;;;;4980298;28;20505;-82
2022/02/12 05:18:48;;;;;;;14.87;5.93;;;0.00;99.90;;;;;;4979738;28;20092;-83
2022/02/12 05:21:13;;;;;;;14.57;4.90;;;0.10;99.90;;;;;;4980291;28;20467;-83
2022/02/12 05:23:39;;;;;;;11.77;5.77;;;0.00;99.90;;;;;;4980235;28;20053;-84
2022/02/12 05:26:05;;;;;;;14.30;5.53;;;0.10;99.90;;;;;;4980193;28;20034;-84
2022/02/12 05:28:31;;;;;;;11.37;5.83;;;0.00;99.90;;;;;;4997351;28;20452;-84
2022/02/12 05:30:56;;;;;;;9.67;4.73;;;0.00;99.90;;;;;;4979983;28;20038;-84
2022/02/12 05:33:22;;;;;;;15.23;5.87;;;0.00;99.90;;;;;;4980484;28;20031;-87
2022/02/12 05:35:49;;;;;;;10.53;5.07;;;0.00;99.90;;;;;;4996894;28;20136;-86
2022/02/12 05:38:15;;;;;;;14.27;5.07;;;0.00;99.90;;;;;;4979909;28;20451;-91
2022/02/12 05:40:41;;;;;;;15.37;5.43;;;0.00;99.90;;;;;;4996867;28;20093;-85
2022/02/12 05:43:07;;;;;;;13.27;5.57;;;0.00;99.90;;;;;;4980017;28;20026;-89
2022/02/12 05:45:32;;;;;;;14.00;4.77;;;0.00;99.90;;;;;;4997185;28;20041;-86
2022/02/12 05:48:01;;;;;;;15.67;6.10;;;-0.10;99.90;;;;;;4979395;28;20459;-87
2022/02/12 05:50:29;;;;;;;13.60;5.73;;;-0.10;99.90;;;;;;4979643;28;20125;-83
2022/02/12 05:52:56;;;;;;;12.60;5.53;;;-0.10;99.90;;;;;;4979208;28;20030;-84
2022/02/12 05:55:22;;;;;;;12.47;4.97;;;-0.10;99.90;;;;;;4979637;28;20034;-83
2022/02/12 05:57:48;;;;;;;10.10;5.17;;;-0.10;99.90;;;;;;4979546;28;20113;-84
2022/02/12 06:00:14;;;;;;;14.53;6.07;;;-0.10;99.90;;;;;;4979549;28;20030;-84
2022/02/12 06:02:40;;;;;;;12.70;5.90;;;-0.10;99.90;;;;;;4996872;28;20034;-84
2022/02/12 06:05:05;;;;;;;18.50;6.30;;;-0.10;99.90;;;;;;4979236;28;20050;-85
2022/02/12 06:07:31;;;;;;;17.80;5.87;;;-0.10;99.90;;;;;;4979451;28;20486;-84
2022/02/12 06:09:57;;;;;;;11.57;6.20;;;-0.10;99.90;;;;;;4979147;28;20077;-84
2022/02/12 06:12:22;;;;;;;13.10;5.93;;;-0.10;99.90;;;;;;4979297;28;20026;-85
2022/02/12 06:14:48;;;;;;;15.20;6.47;;;-0.10;99.90;;;;;;4978669;28;20033;-81
2022/02/12 06:17:13;;;;;;;17.10;6.30;;;-0.10;99.90;;;;;;4979544;28;20038;-86
2022/02/12 06:19:39;;;;;;;15.27;6.50;;;-0.10;99.90;;;;;;4975918;28;20047;-85
2022/02/12 06:22:04;;;;;;;14.60;6.50;;;0.00;99.90;;;;;;4975299;28;20031;-85
2022/02/12 06:24:30;;;;;;;14.40;6.83;;;0.00;99.90;;;;;;4977226;28;20022;-85
2022/02/12 06:26:57;;;;;;;16.80;6.80;;;-0.10;99.90;;;;;;4975743;28;20031;-85
2022/02/12 06:29:24;;;;;;;10.33;5.83;;;-0.10;99.90;;;;;;4975813;28;20026;-85
2022/02/12 06:31:50;;;;;;;11.50;5.73;;;-0.10;99.90;;;;;;4975359;28;20027;-84
2022/02/12 06:34:16;;;;;;;11.83;6.47;;;0.00;99.90;;;;;;4975877;28;20027;-85
2022/02/12 06:36:42;;;;;;;13.50;6.73;;;0.00;99.90;;;;;;4975776;28;20097;-85
2022/02/12 06:39:07;;;;;;;14.00;7.40;;;-0.10;99.90;;;;;;4976150;28;20085;-85
2022/02/12 06:41:33;;;;;;;13.17;6.50;;;-0.10;99.90;;;;;;4976778;28;20442;-85
2022/02/12 06:43:59;;;;;;;14.13;6.53;;;-0.10;99.90;;;;;;4975205;28;20029;-85
2022/02/12 06:46:24;;;;;;;14.87;6.70;;;-0.10;99.90;;;;;;4975563;28;20354;-85
2022/02/12 06:48:51;;;;;;;16.03;6.97;;;-0.10;99.90;;;;;;4975094;28;20035;-84
2022/02/12 06:51:17;;;;;;;17.23;7.63;;;-0.20;99.90;;;;;;4975332;28;20053;-84
2022/02/12 06:53:44;;;;;;;15.40;7.77;;;-0.20;99.90;;;;;;4975484;28;20027;-84
2022/02/12 06:56:10;;;;;;;16.97;8.30;;;-0.10;99.90;;;;;;4974756;28;20472;-84
2022/02/12 06:58:36;;;;;;;18.43;7.73;;;-0.10;99.90;;;;;;4975194;28;20023;-83
2022/02/12 07:01:02;;;;;;;13.73;7.23;;;-0.20;99.90;;;;;;4974574;28;20085;-83
2022/02/12 07:03:27;;;;;;;16.33;7.37;;;-0.10;99.90;;;;;;4976310;28;20456;-84
2022/02/12 07:05:53;;;;;;;17.93;8.90;;;-0.10;99.90;;;;;;4974719;28;20364;-84
2022/02/12 07:08:19;;;;;;;19.27;7.73;;;-0.10;99.90;;;;;;4974992;28;20061;-84
2022/02/12 07:10:44;;;;;;;18.53;8.20;;;-0.10;99.90;;;;;;4975134;28;20026;-84
2022/02/12 07:13:12;;;;;;;17.00;8.07;;;-0.10;99.90;;;;;;4975628;28;20084;-84
2022/02/12 07:15:37;;;;;;;17.17;7.87;;;-0.10;99.90;;;;;;4974963;28;20042;-86
2022/02/12 07:18:03;;;;;;;18.43;8.40;;;-0.10;99.90;;;;;;4979039;28;20499;-86
2022/02/12 07:20:29;;;;;;;16.80;8.13;;;-0.10;99.90;;;;;;4978450;28;20097;-85
2022/02/12 07:22:55;;;;;;;18.60;8.40;;;-0.10;99.90;;;;;;4977424;28;20030;-86
2022/02/12 07:25:21;;;;;;;16.50;8.17;;;-0.10;99.90;;;;;;4978174;28;20026;-90
2022/02/12 07:27:47;;;;;;;22.17;7.60;;;-0.10;99.90;;;;;;4995392;28;20033;-89
2022/02/12 07:30:16;;;;;;;16.37;7.40;;;-0.10;99.90;;;;;;4978147;28;20026;-88
2022/02/12 07:32:43;;;;;;;12.93;6.80;;;-0.10;99.90;;;;;;4978171;28;20035;-89
2022/02/12 07:35:10;;;;;;;17.90;7.97;;;0.00;99.90;;;;;;4994802;28;20069;-87
2022/02/12 07:37:39;;;;;;;19.47;8.27;;;0.00;99.90;;;;;;4978089;28;20471;-88
2022/02/12 07:40:06;;;;;;;16.53;8.37;;;0.00;99.90;;;;;;4977570;28;20026;-85
2022/02/12 07:42:32;;;;;;;17.23;8.37;;;0.00;99.90;;;;;;4977992;28;20030;-84
2022/02/12 07:44:57;;;;;;;15.07;8.47;;;0.10;99.90;;;;;;4977521;28;20052;-84
2022/02/12 07:47:23;;;;;;;16.87;9.13;;;0.00;99.90;;;;;;4994819;28;20030;-85
2022/02/12 07:49:50;;;;;;;14.27;7.87;;;0.00;99.90;;;;;;4994575;28;20030;-85
2022/02/12 07:52:15;;;;;;;17.57;7.67;;;0.10;99.90;;;;;;4977842;28;20204;-84
2022/02/12 07:54:41;;;;;;;17.03;7.70;;;0.00;99.90;;;;;;4977803;28;20113;-85
2022/02/12 07:57:07;;;;;;;12.87;7.60;;;0.00;99.90;;;;;;4994261;28;20459;-85
2022/02/12 07:59:32;;;;;;;16.67;7.80;;;0.10;99.90;;;;;;4977316;28;20028;-85
2022/02/12 08:01:58;;;;;;;19.20;8.23;;;0.10;99.90;;;;;;4994376;28;20478;-86
2022/02/12 08:04:24;;;;;;;14.70;8.40;;;0.10;99.90;;;;;;4994568;28;20031;-86
2022/02/12 08:09:33;;;;;;;16.80;8.43;;;0.20;99.90;;;;;;4994803;28;20037;-86
2022/02/12 08:12:15;;;;;;;21.77;8.13;;;0.20;99.90;;;;;;4994314;28;20379;-85
2022/02/12 08:14:46;;;;;;;19.73;8.03;;;0.30;99.90;;;;;;4977700;28;20459;-86
2022/02/12 08:17:12;;;;;;;17.50;8.20;;;0.40;99.90;;;;;;4977637;28;20038;-85
2022/02/12 08:19:38;;;;;;;17.93;8.03;;;0.40;99.90;;;;;;4994619;28;20083;-85
2022/02/12 08:22:07;;;;;;;16.43;8.03;;;0.40;99.90;;;;;;4976856;28;20125;-86
2022/02/12 08:24:33;;;;;;;18.20;8.50;;;0.50;99.90;;;;;;4977140;28;20490;-85
2022/02/12 08:26:59;;;;;;;19.90;8.40;;;0.50;99.90;;;;;;4994059;28;20026;-85
2022/02/12 08:29:28;;;;;;;19.70;8.47;;;0.50;99.90;;;;;;4977452;28;20030;-84
2022/02/12 08:31:55;;;;;;;17.00;8.93;;;0.60;99.90;;;;;;4976951;28;20426;-85
2022/02/12 08:34:21;;;;;;;17.33;7.93;;;0.60;99.90;;;;;;4979000;28;20471;-84
2022/02/12 08:36:47;;;;;;;17.33;7.63;;;0.70;99.90;;;;;;4981030;28;20042;-84
2022/02/12 08:39:13;;;;;;;14.73;7.87;;;0.70;99.90;;;;;;4980726;28;20034;-84
2022/02/12 08:41:38;;;;;;;19.03;7.90;;;0.80;99.90;;;;;;4980717;28;20045;-81
2022/02/12 08:44:04;;;;;;;17.67;7.70;;;0.80;99.90;;;;;;4997632;28;20101;-84
2022/02/12 08:46:30;;;;;;;15.37;8.23;;;0.80;99.90;;;;;;4980932;28;20027;-84
2022/02/12 08:48:56;;;;;;;18.87;7.50;;;0.90;99.90;;;;;;4997772;28;20026;-85
2022/02/12 08:51:21;;;;;;;16.83;7.83;;;0.90;99.90;;;;;;4981524;28;20069;-83
2022/02/12 08:53:47;;;;;;;14.13;7.17;;;0.90;99.90;;;;;;4980927;28;20119;-83
2022/02/12 08:56:13;;;;;;;14.80;7.47;;;1.00;99.90;;;;;;4980674;28;20042;-85
2022/02/12 08:58:39;;;;;;;16.93;7.83;;;1.10;99.90;;;;;;4981121;28;20121;-90
2022/02/12 09:01:05;;;;;;;15.23;7.17;;;1.20;99.90;;;;;;4980231;28;20032;-85
2022/02/12 09:03:31;;;;;;;16.97;6.67;;;1.20;99.90;;;;;;4980813;28;20460;-84
2022/02/12 09:05:58;;;;;;;15.50;7.53;;;1.20;99.90;;;;;;4977777;28;20041;-86
2022/02/12 09:08:24;;;;;;;17.07;7.13;;;1.30;99.90;;;;;;5012619;28;20029;-86
2022/02/12 09:10:50;;;;;;;13.10;7.03;;;1.40;99.90;;;;;;4997536;28;20490;-85
2022/02/12 09:13:16;;;;;;;12.00;6.17;;;1.50;99.90;;;;;;4979360;28;20030;-91
2022/02/12 09:15:41;;;;;;;13.73;6.60;;;1.60;99.90;;;;;;4979936;28;20285;-90
2022/02/12 09:18:07;;;;;;;16.80;7.23;;;1.50;99.90;;;;;;4978993;28;20054;-89
2022/02/12 09:20:32;;;;;;;16.13;6.77;;;1.60;99.90;;;;;;4980141;28;20033;-85
2022/02/12 09:22:58;;;;;;;14.33;6.47;;;1.70;99.90;;;;;;4985023;28;20034;-87
2022/02/12 09:25:24;;;;;;;14.03;7.60;;;1.70;99.90;;;;;;4987109;28;20026;-84
2022/02/12 09:27:49;;;;;;;12.93;6.57;;;1.70;99.90;;;;;;4980654;28;20030;-88
2022/02/12 09:30:15;;;;;;;12.53;6.13;;;1.80;99.90;;;;;;4981378;28;20485;-88
2022/02/12 09:32:41;;;;;;;18.57;7.73;;;1.90;99.90;;;;;;4980010;28;20023;-85
2022/02/12 09:35:07;;;;;;;14.93;6.53;;;2.00;99.90;;;;;;4979168;28;20033;-84
2022/02/12 09:37:32;;;;;;;13.73;6.30;;;2.10;99.90;;;;;;4979414;28;20108;-85
2022/02/12 09:39:58;;;;;;;12.67;6.50;;;2.10;99.90;;;;;;4993848;28;20416;-85
2022/02/12 09:42:24;;;;;;;16.60;6.67;;;2.10;99.90;;;;;;5002884;28;20037;-89
2022/02/12 09:44:49;;;;;;;14.30;6.27;;;2.20;99.90;;;;;;4983975;28;20406;-87
2022/02/12 09:47:29;;;;;;;11.87;6.10;;;2.20;99.90;;;;;;4978907;28;20038;-86
2022/02/12 09:49:57;;;;;;;16.17;6.80;;;2.20;99.90;;;;;;4986275;28;20034;-83
2022/02/12 09:52:28;;;;;;;11.10;6.23;;;2.30;99.90;;;;;;4980073;28;20486;-88
2022/02/12 09:54:53;;;;;;;15.13;6.10;;;2.30;99.90;;;;;;4979569;28;20096;-88
2022/02/12 09:57:19;;;;;;;16.53;7.90;;;2.50;99.90;;;;;;4981234;28;20113;-86
2022/02/12 09:59:45;;;;;;;13.67;7.13;;;2.50;99.90;;;;;;4982899;28;20037;-85
2022/02/12 10:02:19;;;;;;;11.90;5.73;;;2.60;99.90;;;;;;4976048;28;20081;-83
2022/02/12 10:04:45;;;;;;;13.23;5.83;;;2.70;99.90;;;;;;4975122;28;20463;-85
2022/02/12 10:07:25;;;;;;;15.13;5.67;;;2.80;99.90;;;;;;4978827;28;20117;-85
2022/02/12 10:10:14;;;;;;;11.63;5.67;;;2.90;99.90;;;;;;4974560;28;20030;-85
2022/02/12 10:12:40;;;;;;;13.37;5.50;;;2.90;99.90;;;;;;4974695;28;20382;-85
2022/02/12 10:15:29;;;;;;;14.33;6.30;;;3.00;99.90;;;;;;4984140;28;20041;-84
2022/02/12 10:17:59;;;;;;;10.37;4.93;;;3.10;99.90;;;;;;5014403;28;20030;-84
2022/02/12 10:20:29;;;;;;;12.13;5.60;;;3.10;99.90;;;;;;4979737;28;20034;-85
2022/02/12 10:23:09;;;;;;;11.47;5.40;;;3.20;99.90;;;;;;4978890;28;20030;-87
2022/02/12 10:25:35;;;;;;;11.83;5.43;;;3.20;99.90;;;;;;4996181;28;20026;-87
2022/02/12 10:28:02;;;;;;;9.33;4.70;;;3.30;99.90;;;;;;4978594;28;20469;-88
2022/02/12 10:30:29;;;;;;;14.17;5.23;;;3.30;99.90;;;;;;4979072;28;20027;-85
2022/02/12 10:33:00;;;;;;;11.93;5.03;;;3.40;99.90;;;;;;4980342;28;20090;-78
2022/02/12 10:35:27;;;;;;;11.43;4.72;;;3.50;99.90;;;;;;4980665;28;20055;-88
2022/02/12 10:37:58;;;;;;;7.87;4.40;;;3.60;99.90;;;;;;4997709;28;20045;-89
2022/02/12 10:40:25;;;;;;;12.02;5.05;;;3.60;99.90;;;;;;4978973;28;20494;-81
2022/02/12 10:42:51;;;;;;;14.47;6.13;;;3.70;99.90;;;;;;4995939;28;20065;-82
2022/02/12 10:45:18;;;;;;;12.43;5.30;;;3.70;99.90;;;;;;4975475;28;20038;-84
2022/02/12 10:47:44;;;;;;;12.00;4.40;;;3.80;99.90;;;;;;4977412;28;20031;-85
2022/02/12 10:50:11;;;;;;;11.00;4.80;;;3.80;99.90;;;;;;4972054;28;20038;-86
2022/02/12 10:52:46;;;;;;;11.80;4.70;;;3.80;99.90;;;;;;4976727;28;20031;-83
2022/02/12 10:55:34;;;;;;;11.37;4.03;;;3.90;99.90;;;;;;4958828;28;20096;-82
2022/02/12 10:58:16;;;;;;;11.47;4.13;;;4.00;99.90;;;;;;4970031;28;20042;-85
2022/02/12 11:00:42;;;;;;;13.40;4.07;;;4.10;99.90;;;;;;4975968;28;20422;-86
2022/02/12 11:03:12;;;;;;;13.23;3.90;;;4.10;99.90;;;;;;4994345;28;20256;-82
2022/02/12 11:05:43;;;;;;;10.97;4.67;;;4.20;99.90;;;;;;4978954;28;20069;-83
2022/02/12 11:08:10;;;;;;;11.47;3.97;;;4.30;99.90;;;;;;4993443;28;20103;-80
2022/02/12 11:10:39;;;;;;;9.27;4.60;;;4.30;99.90;;;;;;4980481;28;20058;-84
2022/02/12 11:13:08;;;;;;;8.60;3.90;;;4.30;99.90;;;;;;4978938;28;20018;-82
2022/02/12 11:15:37;;;;;;;9.30;3.97;;;4.40;99.90;;;;;;4977954;28;20423;-82
2022/02/12 11:18:06;;;;;;;8.47;4.10;;;4.40;99.90;;;;;;4989104;28;20038;-82
2022/02/12 11:20:32;;;;;;;10.37;3.97;;;4.50;99.90;;;;;;5004160;28;20036;-88
2022/02/12 11:23:27;;;;;;;10.63;3.67;;;4.60;99.90;;;;;;4976063;28;20346;-90
2022/02/12 11:26:20;;;;;;;8.67;3.80;;;4.60;99.90;;;;;;4978701;28;20422;-86
2022/02/12 11:28:46;;;;;;;7.70;3.80;;;4.60;99.90;;;;;;4977391;28;20117;-82
2022/02/12 11:31:27;;;;;;;7.50;3.90;;;4.70;99.90;;;;;;4977676;28;20038;-83
2022/02/12 11:34:17;;;;;;;6.47;3.30;;;4.90;99.90;;;;;;4978356;28;20145;-82
2022/02/12 11:36:46;;;;;;;6.77;3.43;;;4.90;99.90;;;;;;4977913;28;20379;-81
2022/02/12 11:39:20;;;;;;;8.33;3.60;;;5.00;99.90;;;;;;4976628;28;20038;-81
2022/02/12 11:41:49;;;;;;;11.83;3.80;;;5.10;99.90;;;;;;4960983;28;20026;-83
2022/02/12 11:44:48;;;;;;;11.23;3.97;;;5.20;99.90;;;;;;4976483;28;20042;-81
2022/02/12 11:47:14;;;;;;;12.37;3.93;;;5.20;99.90;;;;;;4976918;28;20146;-82
2022/02/12 11:49:42;;;;;;;8.00;3.60;;;5.30;99.90;;;;;;4977146;28;20822;-81
2022/02/12 11:52:40;;;;;;;9.73;4.20;;;5.30;99.90;;;;;;4976735;28;20056;-82
2022/02/12 11:55:06;;;;;;;7.90;3.43;;;5.40;99.90;;;;;;4960519;28;20069;-84
2022/02/12 11:57:31;;;;;;;7.90;3.90;;;5.50;99.90;;;;;;4994734;28;20066;-84
2022/02/12 12:00:00;;;;;;;8.10;4.50;;;5.50;99.90;;;;;;4977599;28;20426;-83
2022/02/12 12:02:48;;;;;;;7.73;3.77;;;5.50;99.90;;;;;;4977350;28;20029;-81
2022/02/12 12:05:32;;;;;;;7.03;3.33;;;5.70;99.90;;;;;;4975758;28;20029;-81
2022/02/12 12:08:06;;;;;;;10.80;3.73;;;5.80;99.90;;;;;;4965230;28;20030;-82
2022/02/12 12:10:38;;;;;;;9.63;3.80;;;5.90;99.90;;;;;;4977097;28;20023;-82
2022/02/12 12:13:16;;;;;;;11.18;4.00;;;6.10;99.90;;;;;;4976426;28;20031;-82
2022/02/12 12:15:55;;;;;;;7.10;3.13;;;6.10;99.90;;;;;;4976216;28;20030;-80
2022/02/12 12:18:25;;;;;;;9.93;3.47;;;6.40;99.80;;;;;;4976035;28;20066;-83
2022/02/12 12:20:50;;;;;;;8.30;3.57;;;6.40;99.00;;;;;;4976998;28;20480;-80
2022/02/12 12:23:17;;;;;;;7.17;3.17;;;6.60;99.90;;;;;;4976548;28;20037;-80
2022/02/12 12:25:58;;;;;;;6.73;3.37;;;6.70;98.90;;;;;;4977009;28;20030;-80
2022/02/12 12:28:29;;;;;;;9.67;3.70;;;6.90;98.70;;;;;;4975755;28;20456;-79
2022/02/12 12:30:56;;;;;;;8.13;3.25;;;7.10;98.90;;;;;;4976397;28;20054;-78
2022/02/12 12:33:26;;;;;;;7.80;3.40;;;7.30;97.70;;;;;;4975500;28;20030;-81
2022/02/12 12:35:53;;;;;;;7.93;3.20;;;7.50;97.60;;;;;;4976500;28;20046;-83
2022/02/12 12:38:19;;;;;;;9.83;3.77;;;7.80;96.10;;;;;;4976075;28;20027;-80
2022/02/12 12:40:45;;;;;;;6.67;3.50;;;7.80;95.90;;;;;;4976792;28;20033;-80
2022/02/12 12:43:11;;;;;;;10.02;3.78;;;8.00;95.80;;;;;;4976178;28;20376;-80
2022/02/12 12:45:46;;;;;;;8.33;3.50;;;8.20;94.90;;;;;;4976156;28;20117;-80
2022/02/12 12:48:13;;;;;;;14.70;3.78;;;8.40;93.60;;;;;;4975898;28;20039;-84
2022/02/12 12:50:40;;;;;;;9.18;3.80;;;8.50;93.90;;;;;;4976538;28;20177;-79
2022/02/12 12:53:08;;;;;;;8.43;4.22;;;8.70;94.20;;;;;;4975985;28;20109;-86
2022/02/12 12:55:35;;;;;;;12.10;3.83;;;8.90;93.40;;;;;;4976080;28;20030;-79
2022/02/12 12:58:11;;;;;;;8.30;4.13;;;9.00;91.80;;;;;;4993706;28;20022;-79